createdAt,value
2023-05-19T00:00:24.797Z,14.72
2023-05-19T00:03:12.623Z,14.66
2023-05-19T00:05:45.033Z,14.66
2023-05-19T00:08:11.852Z,14.67
2023-05-19T00:10:40.202Z,14.74
2023-05-19T00:13:06.879Z,14.78
2023-05-19T00:15:34.934Z,14.81
2023-05-19T00:18:02.122Z,14.64
2023-05-19T00:20:28.796Z,14.62
2023-05-19T00:22:55.639Z,14.69
2023-05-19T00:25:22.483Z,14.69
2023-05-19T00:27:49.181Z,14.70
2023-05-19T00:30:16.066Z,14.76
2023-05-19T00:32:44.348Z,14.87
2023-05-19T00:35:12.139Z,14.97
2023-05-19T00:37:38.973Z,15.07
2023-05-19T00:40:07.145Z,15.19
2023-05-19T00:42:33.785Z,15.28
2023-05-19T00:45:00.462Z,15.37
2023-05-19T00:47:27.600Z,15.42
2023-05-19T00:49:54.208Z,15.43
2023-05-19T00:52:20.914Z,15.46
2023-05-19T00:54:47.754Z,15.53
2023-05-19T00:57:14.629Z,15.57
2023-05-19T00:59:41.335Z,15.60
2023-05-19T01:02:08.083Z,15.63
2023-05-19T01:04:35.570Z,15.66
2023-05-19T01:07:04.125Z,15.63
2023-05-19T01:09:31.570Z,15.58
2023-05-19T01:12:01.554Z,15.54
2023-05-19T01:14:28.531Z,15.56
2023-05-19T01:17:27.916Z,15.55
2023-05-19T01:20:10.606Z,15.49
2023-05-19T01:22:47.633Z,15.43
2023-05-19T01:25:29.219Z,15.39
2023-05-19T01:28:42.456Z,15.35
2023-05-19T01:31:09.430Z,15.39
2023-05-19T01:33:39.826Z,15.43
2023-05-19T01:36:07.377Z,15.48
2023-05-19T01:38:34.524Z,15.49
2023-05-19T01:41:03.724Z,15.52
2023-05-19T01:43:30.313Z,15.56
2023-05-19T01:45:58.263Z,15.61
2023-05-19T01:48:24.965Z,15.65
2023-05-19T01:50:51.812Z,15.67
2023-05-19T01:53:18.661Z,15.70
2023-05-19T01:55:48.911Z,15.71
2023-05-19T01:58:46.034Z,15.74
2023-05-19T02:01:43.639Z,15.78
2023-05-19T02:04:26.341Z,15.83
2023-05-19T02:07:46.050Z,15.87
2023-05-19T02:10:26.698Z,15.91
2023-05-19T02:12:53.798Z,15.89
2023-05-19T02:15:24.242Z,15.88
2023-05-19T02:17:53.934Z,15.88
2023-05-19T02:20:21.790Z,15.84
2023-05-19T02:22:48.665Z,15.73
2023-05-19T02:25:15.591Z,15.66
2023-05-19T02:27:42.417Z,15.62
2023-05-19T02:30:10.070Z,15.57
2023-05-19T02:32:37.039Z,15.55
2023-05-19T02:35:05.025Z,15.53
2023-05-19T02:37:32.025Z,15.54
2023-05-19T02:39:59.020Z,15.57
2023-05-19T02:42:25.708Z,15.61
2023-05-19T02:44:54.443Z,15.66
2023-05-19T02:47:21.401Z,15.69
2023-05-19T02:49:48.021Z,15.74
2023-05-19T02:52:16.077Z,15.73
2023-05-19T02:54:43.008Z,15.70
2023-05-19T02:57:10.664Z,15.71
2023-05-19T02:59:37.402Z,15.74
2023-05-19T03:02:04.688Z,15.75
2023-05-19T03:04:31.597Z,15.76
2023-05-19T03:06:58.217Z,15.74
2023-05-19T03:09:25.386Z,15.68
2023-05-19T03:11:52.306Z,15.61
2023-05-19T03:14:23.163Z,15.53
2023-05-19T03:16:51.749Z,15.47
2023-05-19T03:19:18.693Z,15.49
2023-05-19T03:21:45.872Z,15.49
2023-05-19T03:24:13.168Z,15.53
2023-05-19T03:26:39.899Z,15.52
2023-05-19T03:29:07.502Z,15.53
2023-05-19T03:31:35.695Z,15.52
2023-05-19T03:34:03.736Z,15.32
2023-05-19T03:36:39.385Z,15.27
2023-05-19T03:39:09.106Z,15.24
2023-05-19T03:41:35.991Z,15.25
2023-05-19T03:44:03.596Z,15.29
2023-05-19T03:46:30.360Z,15.35
2023-05-19T03:49:26.361Z,15.46
2023-05-19T03:52:05.595Z,15.57
2023-05-19T03:54:39.242Z,15.69
2023-05-19T03:57:05.966Z,15.76
2023-05-19T03:59:32.609Z,15.81
2023-05-19T04:01:59.331Z,15.82
2023-05-19T04:04:26.599Z,15.79
2023-05-19T04:06:53.436Z,15.75
2023-05-19T04:09:21.367Z,15.70
2023-05-19T04:11:48.068Z,15.68
2023-05-19T04:14:15.567Z,15.64
2023-05-19T04:16:43.383Z,15.59
2023-05-19T04:19:09.980Z,15.59
2023-05-19T04:21:36.831Z,15.61
2023-05-19T04:24:05.905Z,15.53
2023-05-19T04:26:33.597Z,15.42
2023-05-19T04:29:04.297Z,15.46
2023-05-19T04:31:30.938Z,15.54
2023-05-19T04:33:57.825Z,15.68
2023-05-19T04:36:24.719Z,15.78
2023-05-19T04:38:54.410Z,15.83
2023-05-19T04:41:22.634Z,15.73
2023-05-19T04:43:49.648Z,15.65
2023-05-19T04:46:23.806Z,15.71
2023-05-19T04:48:52.650Z,15.74
2023-05-19T04:51:19.579Z,15.84
2023-05-19T04:53:46.608Z,15.95
2023-05-19T04:56:14.752Z,16.08
2023-05-19T04:58:44.142Z,16.16
2023-05-19T05:01:13.411Z,16.24
2023-05-19T05:03:40.191Z,16.27
2023-05-19T05:06:08.736Z,16.16
2023-05-19T05:08:39.496Z,16.20
2023-05-19T05:11:07.314Z,16.29
2023-05-19T05:13:40.446Z,16.31
2023-05-19T05:16:08.961Z,16.34
2023-05-19T05:18:37.959Z,16.38
2023-05-19T05:21:06.605Z,16.41
2023-05-19T05:23:35.248Z,16.38
2023-05-19T05:26:09.008Z,16.44
2023-05-19T05:28:36.624Z,16.41
2023-05-19T05:31:03.465Z,16.43
2023-05-19T05:33:30.490Z,16.41
2023-05-19T05:35:57.687Z,16.29
2023-05-19T05:38:25.315Z,16.10
2023-05-19T05:40:52.364Z,16.06
2023-05-19T05:43:21.489Z,16.11
2023-05-19T05:45:52.573Z,16.19
2023-05-19T05:48:20.879Z,16.25
2023-05-19T05:50:48.059Z,16.32
2023-05-19T05:53:18.858Z,16.47
2023-05-19T05:55:47.242Z,16.59
2023-05-19T05:58:15.216Z,16.62
2023-05-19T06:00:43.074Z,16.74
2023-05-19T06:03:10.746Z,16.79
2023-05-19T06:05:37.934Z,16.96
2023-05-19T06:08:05.248Z,17.14
2023-05-19T06:10:35.164Z,17.30
2023-05-19T06:13:05.485Z,17.45
2023-05-19T06:15:32.310Z,17.57
2023-05-19T06:18:24.435Z,17.67
2023-05-19T06:20:52.831Z,17.62
2023-05-19T06:23:19.569Z,17.57
2023-05-19T06:25:46.252Z,17.58
2023-05-19T06:28:14.121Z,17.66
2023-05-19T06:30:40.743Z,17.83
2023-05-19T06:33:36.664Z,17.95
2023-05-19T06:36:04.407Z,17.34
2023-05-19T06:38:32.676Z,16.47
2023-05-19T06:41:00.748Z,16.31
2023-05-19T06:43:28.201Z,16.66
2023-05-19T06:45:56.833Z,17.04
2023-05-19T06:48:25.174Z,17.20
2023-05-19T06:50:52.328Z,17.38
2023-05-19T06:53:19.498Z,17.56
2023-05-19T06:55:58.088Z,17.68
2023-05-19T06:58:27.758Z,17.78
2023-05-19T07:00:56.511Z,17.82
2023-05-19T07:03:26.675Z,17.91
2023-05-19T07:05:54.784Z,17.98
2023-05-19T07:08:21.618Z,18.05
2023-05-19T07:10:48.551Z,18.01
2023-05-19T07:13:15.814Z,17.95
2023-05-19T07:15:42.748Z,17.98
2023-05-19T07:18:11.364Z,18.18
2023-05-19T07:20:48.722Z,18.26
2023-05-19T07:23:17.247Z,18.32
2023-05-19T07:25:46.117Z,18.36
2023-05-19T07:28:12.847Z,18.28
2023-05-19T07:30:40.693Z,18.23
2023-05-19T07:33:07.667Z,18.30
2023-05-19T07:35:34.615Z,18.22
2023-05-19T07:38:02.452Z,18.13
2023-05-19T07:40:29.154Z,18.07
2023-05-19T07:42:56.049Z,17.47
2023-05-19T07:45:22.914Z,16.92
2023-05-19T07:47:50.022Z,17.03
2023-05-19T07:50:17.986Z,17.39
2023-05-19T07:52:45.437Z,17.61
2023-05-19T07:55:14.182Z,17.91
2023-05-19T07:57:41.066Z,18.13
2023-05-19T08:00:11.278Z,18.18
2023-05-19T08:02:41.751Z,18.18
2023-05-19T08:05:10.136Z,17.37
2023-05-19T08:07:36.762Z,17.20
2023-05-19T08:10:03.815Z,17.40
2023-05-19T08:12:30.928Z,17.65
2023-05-19T08:14:59.738Z,17.76
2023-05-19T08:17:28.327Z,17.92
2023-05-19T08:19:54.991Z,18.07
2023-05-19T08:22:21.808Z,18.22
2023-05-19T08:24:51.106Z,18.19
2023-05-19T08:27:19.147Z,18.08
2023-05-19T08:29:46.295Z,18.05
2023-05-19T08:32:13.460Z,18.06
2023-05-19T08:34:41.269Z,18.08
2023-05-19T08:37:08.065Z,18.02
2023-05-19T08:39:35.295Z,18.04
2023-05-19T08:42:02.701Z,18.23
2023-05-19T08:44:30.413Z,18.40
2023-05-19T08:46:57.309Z,18.42
2023-05-19T08:49:28.126Z,18.53
2023-05-19T08:53:00.871Z,18.25
2023-05-19T08:55:43.631Z,17.43
2023-05-19T08:58:10.529Z,17.73
2023-05-19T09:00:38.752Z,18.10
2023-05-19T09:03:17.684Z,18.37
2023-05-19T09:05:46.036Z,18.57
2023-05-19T09:08:13.515Z,18.79
2023-05-19T09:10:40.733Z,19.09
2023-05-19T09:13:07.388Z,19.21
2023-05-19T09:15:36.209Z,18.58
2023-05-19T09:18:12.337Z,17.88
2023-05-19T09:20:42.233Z,17.33
2023-05-19T09:23:13.521Z,16.98
2023-05-19T09:25:52.751Z,16.77
2023-05-19T09:28:32.202Z,17.19
2023-05-19T09:30:59.772Z,17.97
2023-05-19T09:33:37.359Z,18.46
2023-05-19T09:36:05.840Z,18.89
2023-05-19T09:38:34.700Z,19.22
2023-05-19T09:41:01.665Z,19.43
2023-05-19T09:43:30.053Z,19.36
2023-05-19T09:46:04.403Z,18.63
2023-05-19T09:48:34.860Z,18.49
2023-05-19T09:51:02.841Z,18.77
2023-05-19T09:53:30.629Z,19.09
2023-05-19T09:55:57.748Z,19.42
2023-05-19T09:58:25.907Z,19.66
2023-05-19T10:00:56.691Z,19.29
2023-05-19T10:03:23.458Z,18.81
2023-05-19T10:05:50.674Z,18.51
2023-05-19T10:08:17.410Z,18.71
2023-05-19T10:10:46.530Z,19.16
2023-05-19T10:13:13.688Z,19.51
2023-05-19T10:15:57.372Z,19.20
2023-05-19T10:18:26.505Z,18.50
2023-05-19T10:20:53.260Z,18.12
2023-05-19T10:23:20.610Z,17.93
2023-05-19T10:25:48.532Z,17.90
2023-05-19T10:28:16.884Z,18.49
2023-05-19T10:30:45.928Z,19.33
2023-05-19T10:33:18.099Z,19.96
2023-05-19T10:36:16.041Z,20.23
2023-05-19T10:38:55.208Z,19.66
2023-05-19T10:41:51.263Z,19.19
2023-05-19T10:44:49.628Z,18.85
2023-05-19T10:47:26.222Z,18.87
2023-05-19T10:49:53.393Z,19.59
2023-05-19T10:52:26.565Z,20.19
2023-05-19T10:54:56.335Z,20.62
2023-05-19T10:57:32.017Z,20.51
2023-05-19T11:00:00.233Z,20.11
2023-05-19T11:02:40.945Z,19.92
2023-05-19T11:05:16.088Z,20.27
2023-05-19T11:07:44.071Z,20.90
2023-05-19T11:10:11.860Z,21.28
2023-05-19T11:12:45.243Z,20.80
2023-05-19T11:15:15.780Z,20.08
2023-05-19T11:17:47.907Z,19.58
2023-05-19T11:20:34.298Z,19.20
2023-05-19T11:23:06.324Z,18.88
2023-05-19T11:25:47.166Z,18.69
2023-05-19T11:28:26.855Z,19.01
2023-05-19T11:30:56.996Z,19.57
2023-05-19T11:33:26.952Z,19.92
2023-05-19T11:35:57.477Z,19.85
2023-05-19T11:38:27.678Z,19.36
2023-05-19T11:40:57.801Z,18.81
2023-05-19T11:43:25.357Z,19.05
2023-05-19T11:45:54.063Z,19.72
2023-05-19T11:48:21.744Z,20.36
2023-05-19T11:50:49.415Z,20.74
2023-05-19T11:53:20.183Z,20.27
2023-05-19T11:55:51.728Z,19.75
2023-05-19T11:58:18.701Z,19.41
2023-05-19T12:00:46.969Z,19.13
2023-05-19T12:03:14.309Z,18.94
2023-05-19T12:05:47.834Z,18.83
2023-05-19T12:08:17.650Z,19.11
2023-05-19T12:10:48.481Z,19.81
2023-05-19T12:13:16.240Z,20.27
2023-05-19T12:15:43.754Z,20.56
2023-05-19T12:18:10.707Z,20.26
2023-05-19T12:20:37.766Z,19.53
2023-05-19T12:23:07.534Z,19.02
2023-05-19T12:25:34.834Z,19.37
2023-05-19T12:28:04.757Z,19.96
2023-05-19T12:30:32.413Z,20.37
2023-05-19T12:33:02.958Z,20.61
2023-05-19T12:35:32.769Z,20.16
2023-05-19T12:38:04.343Z,19.50
2023-05-19T12:40:38.879Z,18.99
2023-05-19T12:43:08.992Z,19.29
2023-05-19T12:45:42.008Z,19.92
2023-05-19T12:48:18.137Z,20.56
2023-05-19T12:50:45.135Z,20.60
2023-05-19T12:53:12.493Z,20.17
2023-05-19T12:55:41.619Z,19.71
2023-05-19T12:58:08.432Z,19.37
2023-05-19T13:00:40.491Z,19.03
2023-05-19T13:03:24.086Z,19.16
2023-05-19T13:05:53.527Z,19.70
2023-05-19T13:08:21.483Z,20.19
2023-05-19T13:10:51.253Z,20.55
2023-05-19T13:13:21.554Z,20.52
2023-05-19T13:15:49.780Z,19.82
2023-05-19T13:18:17.192Z,19.17
2023-05-19T13:20:44.580Z,19.08
2023-05-19T13:23:12.201Z,19.62
2023-05-19T13:25:42.593Z,20.00
2023-05-19T13:28:09.926Z,20.18
2023-05-19T13:30:41.107Z,20.34
2023-05-19T13:33:08.791Z,20.59
2023-05-19T13:35:38.510Z,20.80
2023-05-19T13:38:06.420Z,20.93
2023-05-19T13:40:34.597Z,20.54
2023-05-19T13:43:03.097Z,19.84
2023-05-19T13:45:30.029Z,19.16
2023-05-19T13:47:57.900Z,19.03
2023-05-19T13:50:25.541Z,19.41
2023-05-19T13:52:52.807Z,19.62
2023-05-19T13:55:19.598Z,19.64
2023-05-19T13:57:46.390Z,19.60
2023-05-19T14:00:14.793Z,19.61
2023-05-19T14:02:41.989Z,19.80
2023-05-19T14:05:11.512Z,19.86
2023-05-19T14:07:38.348Z,20.03
2023-05-19T14:10:06.313Z,20.14
2023-05-19T14:12:41.346Z,20.16
2023-05-19T14:15:14.453Z,20.19
2023-05-19T14:17:41.600Z,19.80
2023-05-19T14:20:09.477Z,19.16
2023-05-19T14:22:36.179Z,18.64
2023-05-19T14:25:03.235Z,18.29
2023-05-19T14:27:30.072Z,18.59
2023-05-19T14:29:56.995Z,19.14
2023-05-19T14:32:24.127Z,19.53
2023-05-19T14:34:52.373Z,19.82
2023-05-19T14:37:19.713Z,20.06
2023-05-19T14:39:46.457Z,20.13
2023-05-19T14:42:13.273Z,20.27
2023-05-19T14:44:41.343Z,20.45
2023-05-19T14:47:08.283Z,20.58
2023-05-19T14:49:35.048Z,20.38
2023-05-19T14:52:01.978Z,19.70
2023-05-19T14:54:28.813Z,19.04
2023-05-19T14:56:55.757Z,18.63
2023-05-19T14:59:24.432Z,18.55
2023-05-19T15:01:51.806Z,19.13
2023-05-19T15:04:19.051Z,19.68
2023-05-19T15:06:48.215Z,19.96
2023-05-19T15:09:19.307Z,20.11
2023-05-19T15:11:46.025Z,20.24
2023-05-19T15:14:12.688Z,20.24
2023-05-19T15:16:39.766Z,20.39
2023-05-19T15:19:07.666Z,20.51
2023-05-19T15:21:34.475Z,20.68
2023-05-19T15:24:02.589Z,20.83
2023-05-19T15:26:29.840Z,20.98
2023-05-19T15:28:56.615Z,21.09
2023-05-19T15:31:23.413Z,20.59
2023-05-19T15:33:50.171Z,19.86
2023-05-19T15:36:17.010Z,19.25
2023-05-19T15:38:43.850Z,18.81
2023-05-19T15:41:10.794Z,19.10
2023-05-19T15:43:38.155Z,19.56
2023-05-19T15:46:07.702Z,19.88
2023-05-19T15:48:34.457Z,20.08
2023-05-19T15:51:01.180Z,20.23
2023-05-19T15:53:28.484Z,20.30
2023-05-19T15:55:56.879Z,20.42
2023-05-19T15:58:23.561Z,20.56
2023-05-19T16:00:50.514Z,20.69
2023-05-19T23:50:32.164Z,18.41
2023-05-19T23:53:00.177Z,18.43
2023-05-19T23:55:28.438Z,18.36
2023-05-19T23:57:59.337Z,18.34
